sensor_id;sensor_type;location;lat;lon;timestamp;P1;durP1;ratioP1;P2;durP2;ratioP2
79751;SDS011;69234;47.446;21.636;2023-05-20T00:00:30;37.47;;;37.17;;
79751;SDS011;69234;47.446;21.636;2023-05-20T00:01:01;30.90;;;30.43;;
79751;SDS011;69234;47.446;21.636;2023-05-20T00:01:32;29.83;;;29.43;;
79751;SDS011;69234;47.446;21.636;2023-05-20T00:02:02;47.10;;;46.67;;
79751;SDS011;69234;47.446;21.636;2023-05-20T00:02:33;54.27;;;53.63;;
79751;SDS011;69234;47.446;21.636;2023-05-20T00:03:04;43.37;;;42.80;;
79751;SDS011;69234;47.446;21.636;2023-05-20T00:03:35;39.83;;;39.30;;
79751;SDS011;69234;47.446;21.636;2023-05-20T00:04:06;56.13;;;55.43;;
79751;SDS011;69234;47.446;21.636;2023-05-20T00:04:37;90.07;;;89.07;;
79751;SDS011;69234;47.446;21.636;2023-05-20T00:05:09;70.53;;;69.57;;
79751;SDS011;69234;47.446;21.636;2023-05-20T00:05:40;70.20;;;69.30;;
79751;SDS011;69234;47.446;21.636;2023-05-20T00:06:11;61.03;;;60.30;;
79751;SDS011;69234;47.446;21.636;2023-05-20T00:06:42;64.30;;;63.57;;
79751;SDS011;69234;47.446;21.636;2023-05-20T00:07:12;55.27;;;54.63;;
79751;SDS011;69234;47.446;21.636;2023-05-20T00:07:43;61.83;;;60.93;;
79751;SDS011;69234;47.446;21.636;2023-05-20T00:08:14;65.93;;;65.17;;
79751;SDS011;69234;47.446;21.636;2023-05-20T00:08:44;45.50;;;45.33;;
79751;SDS011;69234;47.446;21.636;2023-05-20T00:09:15;33.73;;;33.70;;
79751;SDS011;69234;47.446;21.636;2023-05-20T00:09:46;57.30;;;56.50;;
79751;SDS011;69234;47.446;21.636;2023-05-20T00:10:17;78.27;;;76.27;;
79751;SDS011;69234;47.446;21.636;2023-05-20T00:10:47;104.17;;;102.83;;
79751;SDS011;69234;47.446;21.636;2023-05-20T00:11:18;87.10;;;86.03;;
79751;SDS011;69234;47.446;21.636;2023-05-20T00:11:49;84.10;;;82.70;;
79751;SDS011;69234;47.446;21.636;2023-05-20T00:12:19;79.67;;;78.77;;
79751;SDS011;69234;47.446;21.636;2023-05-20T00:12:50;86.17;;;85.57;;
79751;SDS011;69234;47.446;21.636;2023-05-20T00:13:21;60.40;;;60.17;;
79751;SDS011;69234;47.446;21.636;2023-05-20T00:13:53;49.17;;;48.80;;
79751;SDS011;69234;47.446;21.636;2023-05-20T00:14:24;68.20;;;67.67;;
79751;SDS011;69234;47.446;21.636;2023-05-20T00:14:54;78.50;;;77.40;;
79751;SDS011;69234;47.446;21.636;2023-05-20T00:15:25;58.03;;;57.37;;
79751;SDS011;69234;47.446;21.636;2023-05-20T00:15:56;75.17;;;74.33;;
79751;SDS011;69234;47.446;21.636;2023-05-20T00:16:26;89.83;;;88.63;;
79751;SDS011;69234;47.446;21.636;2023-05-20T00:16:57;94.40;;;93.17;;
79751;SDS011;69234;47.446;21.636;2023-05-20T00:17:28;69.30;;;68.43;;
79751;SDS011;69234;47.446;21.636;2023-05-20T00:18:01;60.67;;;60.13;;
79751;SDS011;69234;47.446;21.636;2023-05-20T00:18:33;69.53;;;67.93;;
79751;SDS011;69234;47.446;21.636;2023-05-20T00:19:03;62.97;;;61.90;;
79751;SDS011;69234;47.446;21.636;2023-05-20T00:19:34;58.73;;;57.63;;
79751;SDS011;69234;47.446;21.636;2023-05-20T00:20:05;47.87;;;46.83;;
79751;SDS011;69234;47.446;21.636;2023-05-20T00:20:37;38.47;;;38.17;;
79751;SDS011;69234;47.446;21.636;2023-05-20T00:21:08;47.10;;;46.93;;
79751;SDS011;69234;47.446;21.636;2023-05-20T00:21:38;57.57;;;57.20;;
79751;SDS011;69234;47.446;21.636;2023-05-20T00:22:09;100.17;;;98.83;;
79751;SDS011;69234;47.446;21.636;2023-05-20T00:22:40;118.53;;;117.27;;
79751;SDS011;69234;47.446;21.636;2023-05-20T00:23:11;107.60;;;106.17;;
79751;SDS011;69234;47.446;21.636;2023-05-20T00:23:41;61.57;;;60.70;;
79751;SDS011;69234;47.446;21.636;2023-05-20T00:24:12;27.17;;;27.13;;
79751;SDS011;69234;47.446;21.636;2023-05-20T00:24:43;19.87;;;19.87;;
79751;SDS011;69234;47.446;21.636;2023-05-20T00:25:13;18.20;;;18.20;;
79751;SDS011;69234;47.446;21.636;2023-05-20T00:25:45;17.60;;;17.60;;
79751;SDS011;69234;47.446;21.636;2023-05-20T00:26:16;15.53;;;15.53;;
79751;SDS011;69234;47.446;21.636;2023-05-20T00:26:50;15.93;;;15.93;;
79751;SDS011;69234;47.446;21.636;2023-05-20T00:27:21;15.57;;;15.57;;
79751;SDS011;69234;47.446;21.636;2023-05-20T00:27:51;15.73;;;15.73;;
79751;SDS011;69234;47.446;21.636;2023-05-20T00:28:22;15.70;;;15.70;;
79751;SDS011;69234;47.446;21.636;2023-05-20T00:28:53;15.97;;;15.97;;
79751;SDS011;69234;47.446;21.636;2023-05-20T00:29:24;16.43;;;16.43;;
79751;SDS011;69234;47.446;21.636;2023-05-20T00:29:54;16.57;;;16.57;;
79751;SDS011;69234;47.446;21.636;2023-05-20T00:30:25;17.17;;;17.17;;
79751;SDS011;69234;47.446;21.636;2023-05-20T00:30:56;16.77;;;16.77;;
79751;SDS011;69234;47.446;21.636;2023-05-20T00:31:27;16.50;;;16.50;;
79751;SDS011;69234;47.446;21.636;2023-05-20T00:31:58;15.60;;;15.60;;
79751;SDS011;69234;47.446;21.636;2023-05-20T00:32:28;15.77;;;15.77;;
79751;SDS011;69234;47.446;21.636;2023-05-20T00:32:59;15.73;;;15.73;;
79751;SDS011;69234;47.446;21.636;2023-05-20T00:33:30;16.53;;;16.53;;
79751;SDS011;69234;47.446;21.636;2023-05-20T00:34:01;16.53;;;16.53;;
79751;SDS011;69234;47.446;21.636;2023-05-20T00:34:32;16.43;;;16.43;;
79751;SDS011;69234;47.446;21.636;2023-05-20T00:35:03;16.57;;;16.57;;
79751;SDS011;69234;47.446;21.636;2023-05-20T00:35:34;16.10;;;16.10;;
79751;SDS011;69234;47.446;21.636;2023-05-20T00:36:05;19.43;;;19.43;;
79751;SDS011;69234;47.446;21.636;2023-05-20T00:36:36;18.47;;;18.47;;
79751;SDS011;69234;47.446;21.636;2023-05-20T00:37:07;17.57;;;17.57;;
79751;SDS011;69234;47.446;21.636;2023-05-20T00:37:37;17.27;;;17.27;;
79751;SDS011;69234;47.446;21.636;2023-05-20T00:38:08;17.47;;;17.47;;
79751;SDS011;69234;47.446;21.636;2023-05-20T00:38:39;18.77;;;18.77;;
79751;SDS011;69234;47.446;21.636;2023-05-20T00:39:10;19.07;;;19.07;;
79751;SDS011;69234;47.446;21.636;2023-05-20T00:39:41;17.03;;;17.03;;
79751;SDS011;69234;47.446;21.636;2023-05-20T00:40:12;17.37;;;17.37;;
79751;SDS011;69234;47.446;21.636;2023-05-20T00:40:43;19.00;;;19.00;;
79751;SDS011;69234;47.446;21.636;2023-05-20T00:41:14;19.50;;;19.50;;
79751;SDS011;69234;47.446;21.636;2023-05-20T00:41:45;19.93;;;19.93;;
79751;SDS011;69234;47.446;21.636;2023-05-20T00:42:19;22.23;;;22.23;;
79751;SDS011;69234;47.446;21.636;2023-05-20T00:42:55;22.33;;;22.17;;
79751;SDS011;69234;47.446;21.636;2023-05-20T00:43:26;19.30;;;19.30;;
79751;SDS011;69234;47.446;21.636;2023-05-20T00:43:57;19.93;;;19.90;;
79751;SDS011;69234;47.446;21.636;2023-05-20T00:44:28;25.07;;;24.87;;
79751;SDS011;69234;47.446;21.636;2023-05-20T00:44:59;29.13;;;29.13;;
79751;SDS011;69234;47.446;21.636;2023-05-20T00:45:30;25.57;;;25.53;;
79751;SDS011;69234;47.446;21.636;2023-05-20T00:46:01;24.37;;;24.33;;
79751;SDS011;69234;47.446;21.636;2023-05-20T00:46:32;24.63;;;24.63;;
79751;SDS011;69234;47.446;21.636;2023-05-20T00:47:04;22.73;;;22.73;;
79751;SDS011;69234;47.446;21.636;2023-05-20T00:47:35;22.27;;;22.27;;
79751;SDS011;69234;47.446;21.636;2023-05-20T00:48:07;22.60;;;22.50;;
79751;SDS011;69234;47.446;21.636;2023-05-20T00:48:39;20.57;;;20.47;;
79751;SDS011;69234;47.446;21.636;2023-05-20T00:49:13;19.47;;;19.47;;
79751;SDS011;69234;47.446;21.636;2023-05-20T00:49:45;21.20;;;21.20;;
79751;SDS011;69234;47.446;21.636;2023-05-20T00:50:19;20.50;;;20.50;;
79751;SDS011;69234;47.446;21.636;2023-05-20T00:50:49;20.70;;;20.60;;
79751;SDS011;69234;47.446;21.636;2023-05-20T00:51:21;21.17;;;21.10;;
79751;SDS011;69234;47.446;21.636;2023-05-20T00:51:52;19.33;;;19.33;;
79751;SDS011;69234;47.446;21.636;2023-05-20T00:52:23;18.67;;;18.67;;
79751;SDS011;69234;47.446;21.636;2023-05-20T00:52:54;17.10;;;17.10;;
79751;SDS011;69234;47.446;21.636;2023-05-20T00:53:25;18.63;;;18.63;;
79751;SDS011;69234;47.446;21.636;2023-05-20T00:53:56;18.53;;;18.53;;
79751;SDS011;69234;47.446;21.636;2023-05-20T00:54:27;19.20;;;19.20;;
79751;SDS011;69234;47.446;21.636;2023-05-20T00:54:58;19.83;;;19.83;;
79751;SDS011;69234;47.446;21.636;2023-05-20T00:55:30;21.50;;;21.50;;
79751;SDS011;69234;47.446;21.636;2023-05-20T00:56:02;22.83;;;22.73;;
79751;SDS011;69234;47.446;21.636;2023-05-20T00:56:34;20.77;;;20.73;;
79751;SDS011;69234;47.446;21.636;2023-05-20T00:57:05;20.20;;;20.20;;
79751;SDS011;69234;47.446;21.636;2023-05-20T00:57:37;18.47;;;18.47;;
79751;SDS011;69234;47.446;21.636;2023-05-20T00:58:08;18.47;;;18.47;;
79751;SDS011;69234;47.446;21.636;2023-05-20T00:58:39;17.20;;;17.20;;
79751;SDS011;69234;47.446;21.636;2023-05-20T00:59:11;17.00;;;17.00;;
79751;SDS011;69234;47.446;21.636;2023-05-20T00:59:42;17.47;;;17.47;;
79751;SDS011;69234;47.446;21.636;2023-05-20T01:00:13;16.83;;;16.83;;
79751;SDS011;69234;47.446;21.636;2023-05-20T01:00:44;17.97;;;17.97;;
79751;SDS011;69234;47.446;21.636;2023-05-20T01:01:15;20.40;;;20.27;;
79751;SDS011;69234;47.446;21.636;2023-05-20T01:01:46;20.00;;;19.80;;
79751;SDS011;69234;47.446;21.636;2023-05-20T01:02:16;17.97;;;17.97;;
79751;SDS011;69234;47.446;21.636;2023-05-20T01:02:48;18.33;;;18.33;;
79751;SDS011;69234;47.446;21.636;2023-05-20T01:03:19;18.27;;;18.27;;
79751;SDS011;69234;47.446;21.636;2023-05-20T01:03:50;17.77;;;17.77;;
79751;SDS011;69234;47.446;21.636;2023-05-20T01:04:21;18.63;;;18.63;;
79751;SDS011;69234;47.446;21.636;2023-05-20T01:04:52;17.87;;;17.87;;
79751;SDS011;69234;47.446;21.636;2023-05-20T01:05:25;19.70;;;19.70;;
79751;SDS011;69234;47.446;21.636;2023-05-20T01:05:56;20.37;;;20.37;;
79751;SDS011;69234;47.446;21.636;2023-05-20T01:06:27;19.93;;;19.93;;
79751;SDS011;69234;47.446;21.636;2023-05-20T01:06:59;19.17;;;19.17;;
79751;SDS011;69234;47.446;21.636;2023-05-20T01:07:33;19.23;;;19.23;;
79751;SDS011;69234;47.446;21.636;2023-05-20T01:08:04;18.40;;;18.40;;
79751;SDS011;69234;47.446;21.636;2023-05-20T01:08:36;17.93;;;17.93;;
79751;SDS011;69234;47.446;21.636;2023-05-20T01:09:06;19.53;;;19.53;;
79751;SDS011;69234;47.446;21.636;2023-05-20T01:09:37;18.83;;;18.83;;
79751;SDS011;69234;47.446;21.636;2023-05-20T01:10:08;20.07;;;20.07;;
79751;SDS011;69234;47.446;21.636;2023-05-20T01:10:41;18.27;;;18.27;;
79751;SDS011;69234;47.446;21.636;2023-05-20T01:11:19;19.00;;;19.00;;
79751;SDS011;69234;47.446;21.636;2023-05-20T01:12:02;21.10;;;21.10;;
79751;SDS011;69234;47.446;21.636;2023-05-20T01:13:00;21.00;;;21.00;;
79751;SDS011;69234;47.446;21.636;2023-05-20T01:13:50;19.70;;;19.70;;
79751;SDS011;69234;47.446;21.636;2023-05-20T01:14:26;19.40;;;19.40;;
79751;SDS011;69234;47.446;21.636;2023-05-20T01:15:05;19.57;;;19.57;;
79751;SDS011;69234;47.446;21.636;2023-05-20T01:15:39;18.67;;;18.67;;
79751;SDS011;69234;47.446;21.636;2023-05-20T01:16:16;17.70;;;17.70;;
79751;SDS011;69234;47.446;21.636;2023-05-20T01:16:48;19.33;;;19.33;;
79751;SDS011;69234;47.446;21.636;2023-05-20T01:17:22;17.83;;;17.83;;
79751;SDS011;69234;47.446;21.636;2023-05-20T01:17:57;19.47;;;19.40;;
79751;SDS011;69234;47.446;21.636;2023-05-20T01:18:34;19.40;;;19.37;;
79751;SDS011;69234;47.446;21.636;2023-05-20T01:20:05;18.17;;;18.17;;
79751;SDS011;69234;47.446;21.636;2023-05-20T01:20:39;17.03;;;17.03;;
79751;SDS011;69234;47.446;21.636;2023-05-20T01:21:10;17.53;;;17.53;;
79751;SDS011;69234;47.446;21.636;2023-05-20T01:21:42;17.30;;;17.30;;
79751;SDS011;69234;47.446;21.636;2023-05-20T01:22:16;17.57;;;17.57;;
79751;SDS011;69234;47.446;21.636;2023-05-20T01:22:53;17.20;;;17.20;;
79751;SDS011;69234;47.446;21.636;2023-05-20T01:23:59;16.97;;;16.97;;
79751;SDS011;69234;47.446;21.636;2023-05-20T01:24:22;18.10;;;18.10;;
79751;SDS011;69234;47.446;21.636;2023-05-20T01:24:53;17.57;;;17.57;;
79751;SDS011;69234;47.446;21.636;2023-05-20T01:25:24;16.90;;;16.90;;
79751;SDS011;69234;47.446;21.636;2023-05-20T01:25:55;17.97;;;17.97;;
79751;SDS011;69234;47.446;21.636;2023-05-20T01:26:26;17.20;;;17.20;;
79751;SDS011;69234;47.446;21.636;2023-05-20T01:26:57;16.97;;;16.97;;
79751;SDS011;69234;47.446;21.636;2023-05-20T01:27:28;17.53;;;17.53;;
79751;SDS011;69234;47.446;21.636;2023-05-20T01:27:59;17.70;;;17.70;;
79751;SDS011;69234;47.446;21.636;2023-05-20T01:28:31;17.30;;;17.30;;
79751;SDS011;69234;47.446;21.636;2023-05-20T01:29:07;18.73;;;18.73;;
79751;SDS011;69234;47.446;21.636;2023-05-20T01:29:39;17.63;;;17.63;;
79751;SDS011;69234;47.446;21.636;2023-05-20T01:30:11;18.77;;;18.77;;
79751;SDS011;69234;47.446;21.636;2023-05-20T01:30:50;19.17;;;19.17;;
79751;SDS011;69234;47.446;21.636;2023-05-20T01:31:26;18.53;;;18.53;;
79751;SDS011;69234;47.446;21.636;2023-05-20T01:32:11;17.97;;;17.97;;
79751;SDS011;69234;47.446;21.636;2023-05-20T01:32:54;17.57;;;17.57;;
79751;SDS011;69234;47.446;21.636;2023-05-20T01:33:34;16.33;;;16.33;;
79751;SDS011;69234;47.446;21.636;2023-05-20T01:34:08;17.10;;;17.10;;
79751;SDS011;69234;47.446;21.636;2023-05-20T01:34:39;16.83;;;16.83;;
79751;SDS011;69234;47.446;21.636;2023-05-20T01:35:12;17.53;;;17.53;;
79751;SDS011;69234;47.446;21.636;2023-05-20T01:35:46;17.63;;;17.63;;
79751;SDS011;69234;47.446;21.636;2023-05-20T01:36:17;16.47;;;16.47;;
79751;SDS011;69234;47.446;21.636;2023-05-20T01:36:51;16.53;;;16.53;;
79751;SDS011;69234;47.446;21.636;2023-05-20T01:37:25;16.73;;;16.73;;
79751;SDS011;69234;47.446;21.636;2023-05-20T01:37:58;16.17;;;16.17;;
79751;SDS011;69234;47.446;21.636;2023-05-20T01:38:30;17.07;;;17.07;;
79751;SDS011;69234;47.446;21.636;2023-05-20T01:39:02;16.83;;;16.83;;
79751;SDS011;69234;47.446;21.636;2023-05-20T01:39:35;16.73;;;16.73;;
79751;SDS011;69234;47.446;21.636;2023-05-20T01:40:11;16.97;;;16.97;;
79751;SDS011;69234;47.446;21.636;2023-05-20T01:40:45;16.90;;;16.90;;
79751;SDS011;69234;47.446;21.636;2023-05-20T01:41:18;16.40;;;16.40;;
79751;SDS011;69234;47.446;21.636;2023-05-20T01:41:49;16.07;;;16.07;;
79751;SDS011;69234;47.446;21.636;2023-05-20T01:42:21;16.37;;;16.37;;
79751;SDS011;69234;47.446;21.636;2023-05-20T01:42:52;16.83;;;16.83;;
79751;SDS011;69234;47.446;21.636;2023-05-20T01:43:25;16.67;;;16.67;;
79751;SDS011;69234;47.446;21.636;2023-05-20T01:43:57;17.43;;;17.43;;
79751;SDS011;69234;47.446;21.636;2023-05-20T01:44:28;17.27;;;17.27;;
79751;SDS011;69234;47.446;21.636;2023-05-20T01:45:00;16.27;;;16.27;;
79751;SDS011;69234;47.446;21.636;2023-05-20T01:45:31;16.63;;;16.63;;
79751;SDS011;69234;47.446;21.636;2023-05-20T01:46:04;17.83;;;17.83;;
79751;SDS011;69234;47.446;21.636;2023-05-20T01:46:36;17.37;;;17.37;;
79751;SDS011;69234;47.446;21.636;2023-05-20T01:47:06;16.93;;;16.93;;
79751;SDS011;69234;47.446;21.636;2023-05-20T01:47:37;17.03;;;17.03;;
79751;SDS011;69234;47.446;21.636;2023-05-20T01:48:09;17.33;;;17.33;;
79751;SDS011;69234;47.446;21.636;2023-05-20T01:48:41;17.60;;;17.60;;
79751;SDS011;69234;47.446;21.636;2023-05-20T01:49:12;16.97;;;16.97;;
79751;SDS011;69234;47.446;21.636;2023-05-20T01:49:42;17.90;;;17.90;;
79751;SDS011;69234;47.446;21.636;2023-05-20T01:50:15;17.57;;;17.57;;
79751;SDS011;69234;47.446;21.636;2023-05-20T01:50:46;17.87;;;17.87;;
79751;SDS011;69234;47.446;21.636;2023-05-20T01:51:17;17.67;;;17.67;;
79751;SDS011;69234;47.446;21.636;2023-05-20T01:51:47;17.20;;;17.20;;
79751;SDS011;69234;47.446;21.636;2023-05-20T01:52:18;15.83;;;15.83;;
79751;SDS011;69234;47.446;21.636;2023-05-20T01:52:50;16.50;;;16.50;;
79751;SDS011;69234;47.446;21.636;2023-05-20T01:53:21;16.97;;;16.97;;
79751;SDS011;69234;47.446;21.636;2023-05-20T01:53:52;17.97;;;17.97;;
79751;SDS011;69234;47.446;21.636;2023-05-20T01:54:22;17.53;;;17.53;;
79751;SDS011;69234;47.446;21.636;2023-05-20T01:54:53;17.07;;;17.07;;
79751;SDS011;69234;47.446;21.636;2023-05-20T01:55:25;16.07;;;16.07;;
79751;SDS011;69234;47.446;21.636;2023-05-20T01:55:55;15.33;;;15.33;;
79751;SDS011;69234;47.446;21.636;2023-05-20T01:56:26;16.77;;;16.77;;
79751;SDS011;69234;47.446;21.636;2023-05-20T01:56:57;17.33;;;17.33;;
79751;SDS011;69234;47.446;21.636;2023-05-20T01:57:28;16.10;;;16.10;;
79751;SDS011;69234;47.446;21.636;2023-05-20T01:57:59;16.73;;;16.73;;
79751;SDS011;69234;47.446;21.636;2023-05-20T01:58:29;16.80;;;16.80;;
79751;SDS011;69234;47.446;21.636;2023-05-20T01:59:00;16.43;;;16.43;;
79751;SDS011;69234;47.446;21.636;2023-05-20T01:59:31;14.80;;;14.80;;
79751;SDS011;69234;47.446;21.636;2023-05-20T02:00:03;15.10;;;15.10;;
79751;SDS011;69234;47.446;21.636;2023-05-20T02:00:43;16.57;;;16.57;;
79751;SDS011;69234;47.446;21.636;2023-05-20T02:01:14;16.00;;;16.00;;
79751;SDS011;69234;47.446;21.636;2023-05-20T02:01:47;16.57;;;16.57;;
79751;SDS011;69234;47.446;21.636;2023-05-20T02:02:19;17.27;;;17.27;;
79751;SDS011;69234;47.446;21.636;2023-05-20T02:02:50;16.47;;;16.47;;
79751;SDS011;69234;47.446;21.636;2023-05-20T02:03:21;16.70;;;16.70;;
79751;SDS011;69234;47.446;21.636;2023-05-20T02:03:51;17.93;;;17.67;;
79751;SDS011;69234;47.446;21.636;2023-05-20T02:04:22;18.00;;;17.97;;
79751;SDS011;69234;47.446;21.636;2023-05-20T02:04:53;17.53;;;17.50;;
79751;SDS011;69234;47.446;21.636;2023-05-20T02:05:24;17.70;;;17.60;;
79751;SDS011;69234;47.446;21.636;2023-05-20T02:05:55;17.53;;;17.53;;
79751;SDS011;69234;47.446;21.636;2023-05-20T02:06:26;16.40;;;16.40;;
79751;SDS011;69234;47.446;21.636;2023-05-20T02:06:58;17.00;;;17.00;;
79751;SDS011;69234;47.446;21.636;2023-05-20T02:07:29;17.27;;;17.27;;
79751;SDS011;69234;47.446;21.636;2023-05-20T02:07:59;17.87;;;17.80;;
79751;SDS011;69234;47.446;21.636;2023-05-20T02:08:30;17.17;;;17.17;;
79751;SDS011;69234;47.446;21.636;2023-05-20T02:09:03;17.30;;;17.30;;
79751;SDS011;69234;47.446;21.636;2023-05-20T02:09:34;17.67;;;17.67;;
79751;SDS011;69234;47.446;21.636;2023-05-20T02:10:06;18.40;;;18.40;;
79751;SDS011;69234;47.446;21.636;2023-05-20T02:10:37;17.43;;;17.43;;
79751;SDS011;69234;47.446;21.636;2023-05-20T02:11:08;17.33;;;17.33;;
79751;SDS011;69234;47.446;21.636;2023-05-20T02:11:40;16.17;;;16.17;;
79751;SDS011;69234;47.446;21.636;2023-05-20T02:12:11;16.57;;;16.57;;
79751;SDS011;69234;47.446;21.636;2023-05-20T02:12:45;17.10;;;17.10;;
79751;SDS011;69234;47.446;21.636;2023-05-20T02:13:18;17.20;;;17.20;;
79751;SDS011;69234;47.446;21.636;2023-05-20T02:13:49;18.13;;;18.13;;
79751;SDS011;69234;47.446;21.636;2023-05-20T02:14:20;17.73;;;17.73;;
79751;SDS011;69234;47.446;21.636;2023-05-20T02:14:51;17.20;;;17.20;;
79751;SDS011;69234;47.446;21.636;2023-05-20T02:15:22;17.57;;;17.57;;
79751;SDS011;69234;47.446;21.636;2023-05-20T02:15:53;18.10;;;17.97;;
79751;SDS011;69234;47.446;21.636;2023-05-20T02:16:23;16.80;;;16.70;;
79751;SDS011;69234;47.446;21.636;2023-05-20T02:16:54;17.13;;;17.13;;
79751;SDS011;69234;47.446;21.636;2023-05-20T02:17:25;17.97;;;17.87;;
79751;SDS011;69234;47.446;21.636;2023-05-20T02:17:56;17.50;;;17.47;;
79751;SDS011;69234;47.446;21.636;2023-05-20T02:18:27;16.63;;;16.50;;
79751;SDS011;69234;47.446;21.636;2023-05-20T02:18:57;16.47;;;16.47;;
79751;SDS011;69234;47.446;21.636;2023-05-20T02:19:28;17.20;;;17.20;;
79751;SDS011;69234;47.446;21.636;2023-05-20T02:19:59;17.43;;;17.43;;
79751;SDS011;69234;47.446;21.636;2023-05-20T02:20:30;17.67;;;17.67;;
79751;SDS011;69234;47.446;21.636;2023-05-20T02:21:01;17.70;;;17.70;;
79751;SDS011;69234;47.446;21.636;2023-05-20T02:21:40;17.83;;;17.83;;
79751;SDS011;69234;47.446;21.636;2023-05-20T02:22:13;18.77;;;18.70;;
79751;SDS011;69234;47.446;21.636;2023-05-20T02:22:44;18.23;;;18.23;;
79751;SDS011;69234;47.446;21.636;2023-05-20T02:23:15;18.27;;;18.27;;
79751;SDS011;69234;47.446;21.636;2023-05-20T02:23:45;16.97;;;16.97;;
79751;SDS011;69234;47.446;21.636;2023-05-20T02:24:16;17.03;;;17.03;;
79751;SDS011;69234;47.446;21.636;2023-05-20T02:24:47;16.53;;;16.53;;
79751;SDS011;69234;47.446;21.636;2023-05-20T02:25:19;17.07;;;17.07;;
79751;SDS011;69234;47.446;21.636;2023-05-20T02:25:49;16.13;;;16.13;;
79751;SDS011;69234;47.446;21.636;2023-05-20T02:26:20;16.13;;;16.13;;
79751;SDS011;69234;47.446;21.636;2023-05-20T02:26:51;16.60;;;16.60;;
79751;SDS011;69234;47.446;21.636;2023-05-20T02:27:23;16.97;;;16.97;;
79751;SDS011;69234;47.446;21.636;2023-05-20T02:27:54;17.40;;;17.40;;
79751;SDS011;69234;47.446;21.636;2023-05-20T02:28:25;16.60;;;16.60;;
79751;SDS011;69234;47.446;21.636;2023-05-20T02:28:56;16.83;;;16.83;;
79751;SDS011;69234;47.446;21.636;2023-05-20T02:29:26;16.80;;;16.80;;
79751;SDS011;69234;47.446;21.636;2023-05-20T02:29:57;17.07;;;17.07;;
79751;SDS011;69234;47.446;21.636;2023-05-20T02:30:30;17.37;;;17.37;;
79751;SDS011;69234;47.446;21.636;2023-05-20T02:31:00;16.90;;;16.90;;
79751;SDS011;69234;47.446;21.636;2023-05-20T02:31:33;17.03;;;17.03;;
79751;SDS011;69234;47.446;21.636;2023-05-20T02:32:06;17.33;;;17.33;;
79751;SDS011;69234;47.446;21.636;2023-05-20T02:32:38;17.77;;;17.77;;
79751;SDS011;69234;47.446;21.636;2023-05-20T02:33:08;17.87;;;17.87;;
79751;SDS011;69234;47.446;21.636;2023-05-20T02:33:40;17.07;;;17.07;;
79751;SDS011;69234;47.446;21.636;2023-05-20T02:34:11;16.27;;;16.27;;
79751;SDS011;69234;47.446;21.636;2023-05-20T02:34:42;17.43;;;17.43;;
79751;SDS011;69234;47.446;21.636;2023-05-20T02:35:13;16.70;;;16.70;;
79751;SDS011;69234;47.446;21.636;2023-05-20T02:35:45;17.30;;;17.30;;
79751;SDS011;69234;47.446;21.636;2023-05-20T02:36:17;16.57;;;16.57;;
79751;SDS011;69234;47.446;21.636;2023-05-20T02:36:48;17.60;;;17.60;;
79751;SDS011;69234;47.446;21.636;2023-05-20T02:37:19;17.17;;;17.17;;
79751;SDS011;69234;47.446;21.636;2023-05-20T02:37:50;17.13;;;17.13;;
79751;SDS011;69234;47.446;21.636;2023-05-20T02:38:20;16.03;;;16.03;;
79751;SDS011;69234;47.446;21.636;2023-05-20T02:38:51;17.10;;;17.07;;
79751;SDS011;69234;47.446;21.636;2023-05-20T02:39:25;17.40;;;17.40;;
79751;SDS011;69234;47.446;21.636;2023-05-20T02:39:57;17.90;;;17.90;;
79751;SDS011;69234;47.446;21.636;2023-05-20T02:40:28;17.67;;;17.67;;
79751;SDS011;69234;47.446;21.636;2023-05-20T02:40:59;17.90;;;17.90;;
79751;SDS011;69234;47.446;21.636;2023-05-20T02:41:29;16.90;;;16.90;;
79751;SDS011;69234;47.446;21.636;2023-05-20T02:42:00;16.07;;;16.07;;
79751;SDS011;69234;47.446;21.636;2023-05-20T02:42:31;16.13;;;16.13;;
79751;SDS011;69234;47.446;21.636;2023-05-20T02:43:01;17.27;;;17.27;;
79751;SDS011;69234;47.446;21.636;2023-05-20T02:43:33;18.10;;;18.10;;
79751;SDS011;69234;47.446;21.636;2023-05-20T02:44:05;17.20;;;17.20;;
79751;SDS011;69234;47.446;21.636;2023-05-20T02:44:36;16.70;;;16.70;;
79751;SDS011;69234;47.446;21.636;2023-05-20T02:45:07;16.87;;;16.87;;
79751;SDS011;69234;47.446;21.636;2023-05-20T02:45:38;16.27;;;16.27;;
79751;SDS011;69234;47.446;21.636;2023-05-20T02:46:09;16.57;;;16.57;;
79751;SDS011;69234;47.446;21.636;2023-05-20T02:46:40;17.37;;;17.37;;
79751;SDS011;69234;47.446;21.636;2023-05-20T02:47:12;18.43;;;18.43;;
79751;SDS011;69234;47.446;21.636;2023-05-20T02:47:43;17.50;;;17.50;;
79751;SDS011;69234;47.446;21.636;2023-05-20T02:48:14;17.27;;;17.27;;
79751;SDS011;69234;47.446;21.636;2023-05-20T02:48:45;17.97;;;17.97;;
79751;SDS011;69234;47.446;21.636;2023-05-20T02:49:16;17.17;;;17.17;;
79751;SDS011;69234;47.446;21.636;2023-05-20T02:49:46;17.00;;;17.00;;
79751;SDS011;69234;47.446;21.636;2023-05-20T02:50:17;16.50;;;16.50;;
79751;SDS011;69234;47.446;21.636;2023-05-20T02:50:48;17.07;;;17.07;;
79751;SDS011;69234;47.446;21.636;2023-05-20T02:51:19;16.70;;;16.70;;
79751;SDS011;69234;47.446;21.636;2023-05-20T02:51:50;16.90;;;16.90;;
79751;SDS011;69234;47.446;21.636;2023-05-20T02:52:21;17.87;;;17.57;;
79751;SDS011;69234;47.446;21.636;2023-05-20T02:52:52;17.03;;;17.03;;
79751;SDS011;69234;47.446;21.636;2023-05-20T02:53:23;18.07;;;18.07;;
79751;SDS011;69234;47.446;21.636;2023-05-20T02:53:53;16.80;;;16.80;;
79751;SDS011;69234;47.446;21.636;2023-05-20T02:54:24;16.60;;;16.60;;
79751;SDS011;69234;47.446;21.636;2023-05-20T02:54:55;17.03;;;17.03;;
79751;SDS011;69234;47.446;21.636;2023-05-20T02:55:27;17.20;;;17.20;;
79751;SDS011;69234;47.446;21.636;2023-05-20T02:55:59;17.00;;;17.00;;
79751;SDS011;69234;47.446;21.636;2023-05-20T02:56:30;17.50;;;17.10;;
79751;SDS011;69234;47.446;21.636;2023-05-20T02:57:01;17.07;;;17.03;;
79751;SDS011;69234;47.446;21.636;2023-05-20T02:57:32;17.30;;;17.23;;
79751;SDS011;69234;47.446;21.636;2023-05-20T02:58:07;17.37;;;17.37;;
79751;SDS011;69234;47.446;21.636;2023-05-20T02:58:39;17.33;;;17.17;;
79751;SDS011;69234;47.446;21.636;2023-05-20T02:59:10;16.97;;;16.93;;
79751;SDS011;69234;47.446;21.636;2023-05-20T02:59:41;17.70;;;17.67;;
79751;SDS011;69234;47.446;21.636;2023-05-20T03:00:12;17.57;;;17.57;;
79751;SDS011;69234;47.446;21.636;2023-05-20T03:00:43;18.07;;;18.07;;
79751;SDS011;69234;47.446;21.636;2023-05-20T03:01:14;17.73;;;17.73;;
79751;SDS011;69234;47.446;21.636;2023-05-20T03:01:45;17.43;;;17.43;;
79751;SDS011;69234;47.446;21.636;2023-05-20T03:02:16;17.33;;;17.33;;
79751;SDS011;69234;47.446;21.636;2023-05-20T03:02:46;17.53;;;17.47;;
79751;SDS011;69234;47.446;21.636;2023-05-20T03:03:17;17.40;;;17.20;;
79751;SDS011;69234;47.446;21.636;2023-05-20T03:03:48;17.60;;;17.60;;
79751;SDS011;69234;47.446;21.636;2023-05-20T03:04:19;17.37;;;17.37;;
79751;SDS011;69234;47.446;21.636;2023-05-20T03:04:50;16.57;;;16.57;;